sensor_id;sensor_type;location;lat;lon;timestamp;P1;durP1;ratioP1;P2;durP2;ratioP2
57385;SDS011;71829;56.976;21.958;2024-03-08T00:00:11;19.98;;;3.28;;
57385;SDS011;71829;56.976;21.958;2024-03-08T00:02:42;5.78;;;1.70;;
57385;SDS011;71829;56.976;21.958;2024-03-08T00:05:10;6.25;;;1.73;;
57385;SDS011;71829;56.976;21.958;2024-03-08T00:07:38;6.32;;;1.27;;
57385;SDS011;71829;56.976;21.958;2024-03-08T00:10:06;6.35;;;1.08;;
57385;SDS011;71829;56.976;21.958;2024-03-08T00:12:42;22.30;;;3.78;;
57385;SDS011;71829;56.976;21.958;2024-03-08T00:15:12;7.18;;;1.80;;
57385;SDS011;71829;56.976;21.958;2024-03-08T00:17:42;6.63;;;1.17;;
57385;SDS011;71829;56.976;21.958;2024-03-08T00:20:10;13.25;;;2.47;;
57385;SDS011;71829;56.976;21.958;2024-03-08T00:22:40;5.95;;;1.40;;
57385;SDS011;71829;56.976;21.958;2024-03-08T00:25:08;5.05;;;1.02;;
57385;SDS011;71829;56.976;21.958;2024-03-08T00:27:38;16.27;;;3.42;;
57385;SDS011;71829;56.976;21.958;2024-03-08T00:30:06;8.93;;;1.08;;
57385;SDS011;71829;56.976;21.958;2024-03-08T00:32:35;4.85;;;1.25;;
57385;SDS011;71829;56.976;21.958;2024-03-08T00:35:04;4.35;;;1.10;;
57385;SDS011;71829;56.976;21.958;2024-03-08T00:37:34;8.85;;;2.45;;
57385;SDS011;71829;56.976;21.958;2024-03-08T00:40:02;6.57;;;1.27;;
57385;SDS011;71829;56.976;21.958;2024-03-08T00:42:29;5.55;;;1.08;;
57385;SDS011;71829;56.976;21.958;2024-03-08T00:44:57;5.00;;;1.10;;
57385;SDS011;71829;56.976;21.958;2024-03-08T00:47:25;6.60;;;1.48;;
57385;SDS011;71829;56.976;21.958;2024-03-08T00:49:53;6.10;;;1.35;;
57385;SDS011;71829;56.976;21.958;2024-03-08T00:52:23;5.78;;;1.20;;
57385;SDS011;71829;56.976;21.958;2024-03-08T00:54:50;4.05;;;1.23;;
57385;SDS011;71829;56.976;21.958;2024-03-08T03:55:31;5.05;;;1.35;;
57385;SDS011;71829;56.976;21.958;2024-03-08T03:57:59;4.95;;;1.45;;
57385;SDS011;71829;56.976;21.958;2024-03-08T04:00:27;8.45;;;2.78;;
57385;SDS011;71829;56.976;21.958;2024-03-08T04:02:55;3.40;;;0.80;;
57385;SDS011;71829;56.976;21.958;2024-03-08T04:05:26;6.00;;;1.10;;
57385;SDS011;71829;56.976;21.958;2024-03-08T04:07:53;8.02;;;2.08;;
57385;SDS011;71829;56.976;21.958;2024-03-08T04:10:21;10.20;;;3.42;;
57385;SDS011;71829;56.976;21.958;2024-03-08T04:12:48;18.42;;;6.63;;
57385;SDS011;71829;56.976;21.958;2024-03-08T04:15:16;19.67;;;6.85;;
57385;SDS011;71829;56.976;21.958;2024-03-08T04:17:43;10.55;;;4.32;;
57385;SDS011;71829;56.976;21.958;2024-03-08T04:20:13;11.43;;;4.75;;
57385;SDS011;71829;56.976;21.958;2024-03-08T04:22:41;4.43;;;0.80;;
57385;SDS011;71829;56.976;21.958;2024-03-08T04:25:11;6.88;;;2.53;;
57385;SDS011;71829;56.976;21.958;2024-03-08T04:27:38;11.57;;;3.75;;
57385;SDS011;71829;56.976;21.958;2024-03-08T04:30:07;9.70;;;2.30;;
57385;SDS011;71829;56.976;21.958;2024-03-08T04:32:35;6.03;;;1.27;;
57385;SDS011;71829;56.976;21.958;2024-03-08T04:35:04;3.25;;;0.70;;
57385;SDS011;71829;56.976;21.958;2024-03-08T04:37:32;3.72;;;0.70;;
57385;SDS011;71829;56.976;21.958;2024-03-08T04:39:59;4.55;;;0.75;;
57385;SDS011;71829;56.976;21.958;2024-03-08T04:42:27;3.20;;;0.60;;
57385;SDS011;71829;56.976;21.958;2024-03-08T04:44:56;3.03;;;0.63;;
57385;SDS011;71829;56.976;21.958;2024-03-08T04:47:24;2.80;;;0.70;;
57385;SDS011;71829;56.976;21.958;2024-03-08T04:49:52;5.03;;;0.85;;
57385;SDS011;71829;56.976;21.958;2024-03-08T04:52:21;14.80;;;3.13;;
57385;SDS011;71829;56.976;21.958;2024-03-08T04:54:48;27.67;;;10.32;;
57385;SDS011;71829;56.976;21.958;2024-03-08T04:57:16;6.28;;;1.33;;
57385;SDS011;71829;56.976;21.958;2024-03-08T04:59:47;4.85;;;0.90;;
57385;SDS011;71829;56.976;21.958;2024-03-08T05:02:14;8.32;;;1.92;;
57385;SDS011;71829;56.976;21.958;2024-03-08T05:04:42;8.90;;;1.90;;
57385;SDS011;71829;56.976;21.958;2024-03-08T05:07:10;4.95;;;1.13;;
57385;SDS011;71829;56.976;21.958;2024-03-08T05:09:37;8.07;;;2.95;;
57385;SDS011;71829;56.976;21.958;2024-03-08T05:12:06;8.95;;;3.03;;
57385;SDS011;71829;56.976;21.958;2024-03-08T05:14:34;6.18;;;1.10;;
57385;SDS011;71829;56.976;21.958;2024-03-08T05:17:02;4.55;;;1.30;;
57385;SDS011;71829;56.976;21.958;2024-03-08T06:28:28;2.78;;;0.60;;
57385;SDS011;71829;56.976;21.958;2024-03-08T06:30:55;2.95;;;0.52;;
57385;SDS011;71829;56.976;21.958;2024-03-08T06:33:23;5.15;;;0.90;;
57385;SDS011;71829;56.976;21.958;2024-03-08T06:35:53;13.90;;;5.88;;
57385;SDS011;71829;56.976;21.958;2024-03-08T06:38:24;4.47;;;0.85;;
57385;SDS011;71829;56.976;21.958;2024-03-08T06:40:52;18.10;;;7.90;;
57385;SDS011;71829;56.976;21.958;2024-03-08T06:43:21;3.47;;;0.50;;
57385;SDS011;71829;56.976;21.958;2024-03-08T06:45:48;3.95;;;0.65;;
57385;SDS011;71829;56.976;21.958;2024-03-08T06:48:16;4.55;;;0.65;;
57385;SDS011;71829;56.976;21.958;2024-03-08T06:50:44;3.95;;;0.60;;
57385;SDS011;71829;56.976;21.958;2024-03-08T06:53:12;2.42;;;0.50;;
57385;SDS011;71829;56.976;21.958;2024-03-08T06:55:40;2.97;;;0.50;;
57385;SDS011;71829;56.976;21.958;2024-03-08T06:58:07;2.88;;;0.50;;
57385;SDS011;71829;56.976;21.958;2024-03-08T07:00:37;3.30;;;0.50;;
57385;SDS011;71829;56.976;21.958;2024-03-08T07:03:07;7.07;;;0.77;;
57385;SDS011;71829;56.976;21.958;2024-03-08T07:05:39;2.90;;;0.40;;
57385;SDS011;71829;56.976;21.958;2024-03-08T07:08:08;2.13;;;0.40;;
57385;SDS011;71829;56.976;21.958;2024-03-08T07:10:35;2.30;;;0.50;;
57385;SDS011;71829;56.976;21.958;2024-03-08T07:13:03;5.47;;;0.40;;
57385;SDS011;71829;56.976;21.958;2024-03-08T07:15:31;3.78;;;0.57;;
57385;SDS011;71829;56.976;21.958;2024-03-08T07:17:59;5.55;;;1.50;;
57385;SDS011;71829;56.976;21.958;2024-03-08T07:20:26;3.55;;;0.80;;
57385;SDS011;71829;56.976;21.958;2024-03-08T07:22:55;5.68;;;1.05;;
57385;SDS011;71829;56.976;21.958;2024-03-08T07:27:54;6.40;;;0.60;;
57385;SDS011;71829;56.976;21.958;2024-03-08T07:30:22;5.28;;;1.27;;
57385;SDS011;71829;56.976;21.958;2024-03-08T07:33:09;4.30;;;0.82;;
57385;SDS011;71829;56.976;21.958;2024-03-08T07:35:41;32.05;;;12.30;;
57385;SDS011;71829;56.976;21.958;2024-03-08T07:38:11;10.25;;;3.30;;
57385;SDS011;71829;56.976;21.958;2024-03-08T07:40:38;5.53;;;1.23;;
57385;SDS011;71829;56.976;21.958;2024-03-08T07:43:07;5.95;;;1.15;;
57385;SDS011;71829;56.976;21.958;2024-03-08T07:45:35;4.90;;;1.00;;
57385;SDS011;71829;56.976;21.958;2024-03-08T07:48:03;4.28;;;0.63;;
57385;SDS011;71829;56.976;21.958;2024-03-08T07:50:37;3.28;;;0.95;;
57385;SDS011;71829;56.976;21.958;2024-03-08T07:53:06;3.30;;;0.70;;
57385;SDS011;71829;56.976;21.958;2024-03-08T07:55:34;3.17;;;0.63;;
57385;SDS011;71829;56.976;21.958;2024-03-08T07:58:02;4.18;;;0.70;;
57385;SDS011;71829;56.976;21.958;2024-03-08T08:00:30;3.75;;;0.70;;
57385;SDS011;71829;56.976;21.958;2024-03-08T08:02:58;3.00;;;0.52;;
57385;SDS011;71829;56.976;21.958;2024-03-08T08:05:25;5.57;;;0.90;;
57385;SDS011;71829;56.976;21.958;2024-03-08T08:07:53;4.97;;;1.23;;
57385;SDS011;71829;56.976;21.958;2024-03-08T08:10:21;4.30;;;1.00;;
57385;SDS011;71829;56.976;21.958;2024-03-08T08:12:49;5.28;;;1.35;;
57385;SDS011;71829;56.976;21.958;2024-03-08T08:15:16;4.15;;;0.65;;
57385;SDS011;71829;56.976;21.958;2024-03-08T08:17:44;4.97;;;0.65;;
57385;SDS011;71829;56.976;21.958;2024-03-08T08:20:12;5.05;;;0.77;;
57385;SDS011;71829;56.976;21.958;2024-03-08T08:22:40;3.75;;;0.88;;
57385;SDS011;71829;56.976;21.958;2024-03-08T08:25:08;2.80;;;0.57;;
57385;SDS011;71829;56.976;21.958;2024-03-08T08:27:40;4.40;;;0.50;;
57385;SDS011;71829;56.976;21.958;2024-03-08T08:30:09;3.97;;;0.50;;
57385;SDS011;71829;56.976;21.958;2024-03-08T08:32:38;3.20;;;0.45;;
57385;SDS011;71829;56.976;21.958;2024-03-08T08:35:06;2.88;;;0.50;;
57385;SDS011;71829;56.976;21.958;2024-03-08T08:37:40;2.38;;;0.40;;
57385;SDS011;71829;56.976;21.958;2024-03-08T08:40:08;2.63;;;0.50;;
57385;SDS011;71829;56.976;21.958;2024-03-08T08:42:37;3.08;;;0.50;;
57385;SDS011;71829;56.976;21.958;2024-03-08T08:45:07;3.22;;;0.50;;
57385;SDS011;71829;56.976;21.958;2024-03-08T08:47:42;5.18;;;0.65;;
57385;SDS011;71829;56.976;21.958;2024-03-08T08:50:12;2.67;;;0.50;;
57385;SDS011;71829;56.976;21.958;2024-03-08T08:52:40;4.43;;;0.90;;
57385;SDS011;71829;56.976;21.958;2024-03-08T08:55:10;6.20;;;0.95;;
57385;SDS011;71829;56.976;21.958;2024-03-08T09:00:09;3.67;;;0.73;;
57385;SDS011;71829;56.976;21.958;2024-03-08T09:02:42;6.32;;;1.13;;
57385;SDS011;71829;56.976;21.958;2024-03-08T09:05:10;8.88;;;1.00;;
57385;SDS011;71829;56.976;21.958;2024-03-08T09:07:43;4.07;;;0.65;;
57385;SDS011;71829;56.976;21.958;2024-03-08T09:10:11;10.05;;;3.08;;
57385;SDS011;71829;56.976;21.958;2024-03-08T09:12:43;27.65;;;8.95;;
57385;SDS011;71829;56.976;21.958;2024-03-08T09:15:11;4.95;;;0.60;;
57385;SDS011;71829;56.976;21.958;2024-03-08T09:17:39;4.57;;;0.70;;
57385;SDS011;71829;56.976;21.958;2024-03-08T09:20:08;3.20;;;0.73;;
57385;SDS011;71829;56.976;21.958;2024-03-08T09:22:44;4.63;;;1.02;;
57385;SDS011;71829;56.976;21.958;2024-03-08T09:25:13;4.28;;;0.70;;
57385;SDS011;71829;56.976;21.958;2024-03-08T09:27:40;2.97;;;0.70;;
57385;SDS011;71829;56.976;21.958;2024-03-08T09:30:08;3.00;;;0.80;;
57385;SDS011;71829;56.976;21.958;2024-03-08T09:32:35;4.00;;;0.73;;
57385;SDS011;71829;56.976;21.958;2024-03-08T09:35:04;6.25;;;2.10;;
57385;SDS011;71829;56.976;21.958;2024-03-08T09:40:02;2.10;;;0.30;;
57385;SDS011;71829;56.976;21.958;2024-03-08T09:42:36;1.85;;;0.40;;
57385;SDS011;71829;56.976;21.958;2024-03-08T09:45:05;1.90;;;0.30;;
57385;SDS011;71829;56.976;21.958;2024-03-08T09:47:44;3.47;;;0.50;;
57385;SDS011;71829;56.976;21.958;2024-03-08T09:50:12;3.58;;;0.30;;
57385;SDS011;71829;56.976;21.958;2024-03-08T09:52:40;1.90;;;0.30;;
57385;SDS011;71829;56.976;21.958;2024-03-08T09:55:07;3.67;;;0.50;;
57385;SDS011;71829;56.976;21.958;2024-03-08T09:57:38;4.40;;;0.75;;
57385;SDS011;71829;56.976;21.958;2024-03-08T10:00:06;6.85;;;1.52;;
57385;SDS011;71829;56.976;21.958;2024-03-08T10:03:01;6.82;;;1.35;;
57385;SDS011;71829;56.976;21.958;2024-03-08T10:05:30;10.30;;;1.23;;
57385;SDS011;71829;56.976;21.958;2024-03-08T10:07:59;13.95;;;3.38;;
57385;SDS011;71829;56.976;21.958;2024-03-08T10:10:27;7.07;;;1.52;;
57385;SDS011;71829;56.976;21.958;2024-03-08T10:12:55;4.90;;;1.27;;
57385;SDS011;71829;56.976;21.958;2024-03-08T10:15:23;4.00;;;0.63;;
57385;SDS011;71829;56.976;21.958;2024-03-08T10:17:50;4.22;;;0.70;;
57385;SDS011;71829;56.976;21.958;2024-03-08T10:20:19;5.30;;;1.20;;
57385;SDS011;71829;56.976;21.958;2024-03-08T10:22:47;7.13;;;1.70;;
57385;SDS011;71829;56.976;21.958;2024-03-08T10:25:32;3.60;;;0.52;;
57385;SDS011;71829;56.976;21.958;2024-03-08T10:28:02;15.38;;;3.80;;
57385;SDS011;71829;56.976;21.958;2024-03-08T10:30:33;4.20;;;1.02;;
57385;SDS011;71829;56.976;21.958;2024-03-08T10:33:01;8.68;;;1.45;;
57385;SDS011;71829;56.976;21.958;2024-03-08T10:37:59;4.30;;;1.15;;
57385;SDS011;71829;56.976;21.958;2024-03-08T10:40:30;5.65;;;1.15;;
57385;SDS011;71829;56.976;21.958;2024-03-08T10:42:59;4.93;;;0.85;;
57385;SDS011;71829;56.976;21.958;2024-03-08T10:45:36;2.05;;;0.30;;
57385;SDS011;71829;56.976;21.958;2024-03-08T10:50:47;3.38;;;0.35;;
57385;SDS011;71829;56.976;21.958;2024-03-08T10:53:17;2.55;;;0.60;;
57385;SDS011;71829;56.976;21.958;2024-03-08T10:55:47;2.45;;;0.47;;
57385;SDS011;71829;56.976;21.958;2024-03-08T10:58:21;1.80;;;0.35;;
57385;SDS011;71829;56.976;21.958;2024-03-08T11:00:49;2.50;;;0.50;;
57385;SDS011;71829;56.976;21.958;2024-03-08T11:06:03;3.42;;;0.50;;
57385;SDS011;71829;56.976;21.958;2024-03-08T11:08:31;3.30;;;0.73;;
57385;SDS011;71829;56.976;21.958;2024-03-08T11:10:58;1.85;;;0.30;;
57385;SDS011;71829;56.976;21.958;2024-03-08T11:13:32;2.63;;;0.38;;
57385;SDS011;71829;56.976;21.958;2024-03-08T11:16:02;2.45;;;0.40;;
57385;SDS011;71829;56.976;21.958;2024-03-08T11:18:33;2.20;;;0.30;;
57385;SDS011;71829;56.976;21.958;2024-03-08T11:21:07;4.75;;;0.55;;
57385;SDS011;71829;56.976;21.958;2024-03-08T11:23:39;2.22;;;0.30;;
57385;SDS011;71829;56.976;21.958;2024-03-08T11:26:23;2.60;;;0.40;;
57385;SDS011;71829;56.976;21.958;2024-03-08T11:28:51;2.58;;;0.38;;
57385;SDS011;71829;56.976;21.958;2024-03-08T11:31:23;3.05;;;0.40;;
57385;SDS011;71829;56.976;21.958;2024-03-08T11:33:53;2.55;;;0.52;;
57385;SDS011;71829;56.976;21.958;2024-03-08T11:36:24;2.65;;;0.43;;
57385;SDS011;71829;56.976;21.958;2024-03-08T11:38:52;4.00;;;0.60;;
57385;SDS011;71829;56.976;21.958;2024-03-08T11:41:22;5.18;;;0.50;;
57385;SDS011;71829;56.976;21.958;2024-03-08T11:44:01;5.38;;;0.70;;
57385;SDS011;71829;56.976;21.958;2024-03-08T11:46:32;3.83;;;0.50;;
57385;SDS011;71829;56.976;21.958;2024-03-08T11:49:00;4.30;;;0.50;;
57385;SDS011;71829;56.976;21.958;2024-03-08T11:51:28;2.47;;;0.50;;
57385;SDS011;71829;56.976;21.958;2024-03-08T11:53:56;2.92;;;0.50;;
57385;SDS011;71829;56.976;21.958;2024-03-08T11:56:24;2.78;;;0.50;;
57385;SDS011;71829;56.976;21.958;2024-03-08T11:58:55;2.65;;;0.50;;
57385;SDS011;71829;56.976;21.958;2024-03-08T12:01:27;3.50;;;0.40;;
57385;SDS011;71829;56.976;21.958;2024-03-08T12:03:55;4.05;;;0.80;;
57385;SDS011;71829;56.976;21.958;2024-03-08T12:06:27;4.07;;;0.73;;
57385;SDS011;71829;56.976;21.958;2024-03-08T12:09:09;4.65;;;0.77;;
57385;SDS011;71829;56.976;21.958;2024-03-08T12:11:37;3.67;;;0.57;;
57385;SDS011;71829;56.976;21.958;2024-03-08T12:14:06;2.90;;;0.82;;
57385;SDS011;71829;56.976;21.958;2024-03-08T12:16:33;2.83;;;0.50;;
57385;SDS011;71829;56.976;21.958;2024-03-08T12:19:01;3.03;;;0.45;;
57385;SDS011;71829;56.976;21.958;2024-03-08T12:21:31;3.35;;;0.47;;
57385;SDS011;71829;56.976;21.958;2024-03-08T12:24:08;4.20;;;0.57;;
57385;SDS011;71829;56.976;21.958;2024-03-08T12:29:19;2.55;;;0.35;;
57385;SDS011;71829;56.976;21.958;2024-03-08T12:31:55;2.17;;;0.40;;
57385;SDS011;71829;56.976;21.958;2024-03-08T12:34:25;2.00;;;0.30;;
57385;SDS011;71829;56.976;21.958;2024-03-08T12:36:54;2.22;;;0.30;;
57385;SDS011;71829;56.976;21.958;2024-03-08T12:39:22;2.78;;;0.43;;
57385;SDS011;71829;56.976;21.958;2024-03-08T12:41:54;5.38;;;0.70;;
57385;SDS011;71829;56.976;21.958;2024-03-08T12:44:24;3.10;;;0.57;;
57385;SDS011;71829;56.976;21.958;2024-03-08T12:46:52;2.20;;;0.40;;
57385;SDS011;71829;56.976;21.958;2024-03-08T12:49:20;3.17;;;0.40;;
57385;SDS011;71829;56.976;21.958;2024-03-08T12:51:52;2.97;;;0.40;;
57385;SDS011;71829;56.976;21.958;2024-03-08T12:54:19;3.22;;;0.50;;
57385;SDS011;71829;56.976;21.958;2024-03-08T12:59:20;4.25;;;0.50;;
57385;SDS011;71829;56.976;21.958;2024-03-08T13:01:48;4.78;;;0.60;;
57385;SDS011;71829;56.976;21.958;2024-03-08T13:04:18;2.80;;;0.50;;
57385;SDS011;71829;56.976;21.958;2024-03-08T13:06:48;3.58;;;0.60;;
57385;SDS011;71829;56.976;21.958;2024-03-08T13:09:20;5.25;;;1.33;;
57385;SDS011;71829;56.976;21.958;2024-03-08T13:11:49;4.20;;;0.70;;
57385;SDS011;71829;56.976;21.958;2024-03-08T13:14:16;8.25;;;1.70;;
57385;SDS011;71829;56.976;21.958;2024-03-08T13:16:44;9.32;;;2.15;;
57385;SDS011;71829;56.976;21.958;2024-03-08T13:21:43;5.47;;;0.90;;
57385;SDS011;71829;56.976;21.958;2024-03-08T13:24:16;3.85;;;0.75;;
57385;SDS011;71829;56.976;21.958;2024-03-08T13:26:45;3.13;;;0.70;;
57385;SDS011;71829;56.976;21.958;2024-03-08T13:29:14;3.20;;;0.60;;
57385;SDS011;71829;56.976;21.958;2024-03-08T13:34:18;3.63;;;0.50;;
57385;SDS011;71829;56.976;21.958;2024-03-08T13:36:54;20.13;;;3.95;;
57385;SDS011;71829;56.976;21.958;2024-03-08T13:39:27;9.60;;;1.60;;
57385;SDS011;71829;56.976;21.958;2024-03-08T13:41:55;11.73;;;2.20;;
57385;SDS011;71829;56.976;21.958;2024-03-08T13:44:23;4.75;;;1.00;;
57385;SDS011;71829;56.976;21.958;2024-03-08T13:46:52;7.20;;;1.25;;
57385;SDS011;71829;56.976;21.958;2024-03-08T13:49:20;4.82;;;0.60;;
57385;SDS011;71829;56.976;21.958;2024-03-08T13:51:47;3.90;;;0.63;;
57385;SDS011;71829;56.976;21.958;2024-03-08T13:54:16;3.20;;;0.60;;
57385;SDS011;71829;56.976;21.958;2024-03-08T13:56:44;2.92;;;0.60;;
57385;SDS011;71829;56.976;21.958;2024-03-08T13:59:12;4.32;;;0.63;;
57385;SDS011;71829;56.976;21.958;2024-03-08T14:01:40;5.53;;;0.60;;
57385;SDS011;71829;56.976;21.958;2024-03-08T14:04:10;3.03;;;0.60;;
57385;SDS011;71829;56.976;21.958;2024-03-08T14:06:43;4.25;;;0.80;;
57385;SDS011;71829;56.976;21.958;2024-03-08T14:09:13;3.03;;;0.70;;
57385;SDS011;71829;56.976;21.958;2024-03-08T14:11:43;5.03;;;1.15;;
57385;SDS011;71829;56.976;21.958;2024-03-08T14:14:11;3.72;;;0.82;;
57385;SDS011;71829;56.976;21.958;2024-03-08T14:16:41;4.47;;;0.82;;
57385;SDS011;71829;56.976;21.958;2024-03-08T14:19:09;4.07;;;0.88;;
57385;SDS011;71829;56.976;21.958;2024-03-08T14:21:37;4.22;;;0.70;;
57385;SDS011;71829;56.976;21.958;2024-03-08T14:24:06;7.10;;;1.05;;
57385;SDS011;71829;56.976;21.958;2024-03-08T14:26:33;9.32;;;1.67;;
57385;SDS011;71829;56.976;21.958;2024-03-08T14:29:01;4.75;;;0.85;;
57385;SDS011;71829;56.976;21.958;2024-03-08T14:31:28;4.00;;;0.85;;
57385;SDS011;71829;56.976;21.958;2024-03-08T14:33:57;3.70;;;0.63;;
57385;SDS011;71829;56.976;21.958;2024-03-08T14:36:25;6.18;;;1.17;;
57385;SDS011;71829;56.976;21.958;2024-03-08T14:38:52;4.60;;;1.10;;
57385;SDS011;71829;56.976;21.958;2024-03-08T14:41:20;5.57;;;1.10;;
57385;SDS011;71829;56.976;21.958;2024-03-08T14:43:48;3.97;;;0.90;;
57385;SDS011;71829;56.976;21.958;2024-03-08T14:46:16;4.80;;;0.73;;
57385;SDS011;71829;56.976;21.958;2024-03-08T14:48:43;3.15;;;0.70;;
57385;SDS011;71829;56.976;21.958;2024-03-08T14:51:16;3.67;;;0.95;;
57385;SDS011;71829;56.976;21.958;2024-03-08T14:53:46;4.45;;;0.75;;
57385;SDS011;71829;56.976;21.958;2024-03-08T14:56:13;6.93;;;1.33;;
57385;SDS011;71829;56.976;21.958;2024-03-08T14:58:43;4.40;;;1.02;;
57385;SDS011;71829;56.976;21.958;2024-03-08T15:01:11;4.55;;;0.70;;
57385;SDS011;71829;56.976;21.958;2024-03-08T15:03:42;4.60;;;1.00;;
57385;SDS011;71829;56.976;21.958;2024-03-08T15:06:10;4.70;;;1.00;;
57385;SDS011;71829;56.976;21.958;2024-03-08T15:08:38;3.85;;;0.70;;
57385;SDS011;71829;56.976;21.958;2024-03-08T15:11:06;3.67;;;0.68;;
57385;SDS011;71829;56.976;21.958;2024-03-08T15:13:35;3.25;;;0.80;;
57385;SDS011;71829;56.976;21.958;2024-03-08T15:16:07;4.10;;;1.10;;
57385;SDS011;71829;56.976;21.958;2024-03-08T15:18:35;3.70;;;0.80;;
57385;SDS011;71829;56.976;21.958;2024-03-08T15:21:04;4.18;;;0.90;;
57385;SDS011;71829;56.976;21.958;2024-03-08T15:23:35;3.88;;;0.80;;
57385;SDS011;71829;56.976;21.958;2024-03-08T15:26:03;3.53;;;0.60;;
57385;SDS011;71829;56.976;21.958;2024-03-08T15:28:34;5.03;;;0.80;;
57385;SDS011;71829;56.976;21.958;2024-03-08T15:31:06;3.03;;;0.73;;
57385;SDS011;71829;56.976;21.958;2024-03-08T15:33:33;5.50;;;1.02;;
57385;SDS011;71829;56.976;21.958;2024-03-08T15:36:05;3.72;;;0.68;;
57385;SDS011;71829;56.976;21.958;2024-03-08T15:38:36;2.88;;;0.63;;
57385;SDS011;71829;56.976;21.958;2024-03-08T15:41:04;4.00;;;0.88;;
57385;SDS011;71829;56.976;21.958;2024-03-08T15:43:38;7.13;;;1.67;;
57385;SDS011;71829;56.976;21.958;2024-03-08T15:46:06;14.63;;;4.03;;
57385;SDS011;71829;56.976;21.958;2024-03-08T15:48:34;11.73;;;5.18;;
57385;SDS011;71829;56.976;21.958;2024-03-08T15:51:03;10.68;;;3.67;;
57385;SDS011;71829;56.976;21.958;2024-03-08T15:53:32;10.23;;;3.20;;
57385;SDS011;71829;56.976;21.958;2024-03-08T15:56:04;5.18;;;1.85;;
57385;SDS011;71829;56.976;21.958;2024-03-08T16:01:02;2.55;;;0.43;;
57385;SDS011;71829;56.976;21.958;2024-03-08T16:03:33;8.80;;;2.10;;
57385;SDS011;71829;56.976;21.958;2024-03-08T16:06:00;6.97;;;1.75;;
57385;SDS011;71829;56.976;21.958;2024-03-08T16:08:30;10.68;;;3.53;;
57385;SDS011;71829;56.976;21.958;2024-03-08T16:10:59;14.90;;;6.10;;
57385;SDS011;71829;56.976;21.958;2024-03-08T16:13:30;9.02;;;3.55;;
57385;SDS011;71829;56.976;21.958;2024-03-08T16:15:57;29.73;;;11.65;;
57385;SDS011;71829;56.976;21.958;2024-03-08T16:18:25;11.05;;;3.95;;
57385;SDS011;71829;56.976;21.958;2024-03-08T16:20:53;3.85;;;1.00;;
57385;SDS011;71829;56.976;21.958;2024-03-08T16:23:21;39.97;;;14.50;;
57385;SDS011;71829;56.976;21.958;2024-03-08T16:25:49;30.08;;;10.38;;
57385;SDS011;71829;56.976;21.958;2024-03-08T16:28:17;4.28;;;1.20;;
57385;SDS011;71829;56.976;21.958;2024-03-08T16:30:45;8.18;;;3.15;;
57385;SDS011;71829;56.976;21.958;2024-03-08T16:33:15;16.48;;;4.50;;
57385;SDS011;71829;56.976;21.958;2024-03-08T16:35:43;37.75;;;13.70;;
57385;SDS011;71829;56.976;21.958;2024-03-08T16:38:11;26.10;;;9.50;;
57385;SDS011;71829;56.976;21.958;2024-03-08T16:40:43;31.40;;;11.30;;
57385;SDS011;71829;56.976;21.958;2024-03-08T16:43:11;9.57;;;2.75;;
57385;SDS011;71829;56.976;21.958;2024-03-08T16:45:41;9.05;;;3.55;;
57385;SDS011;71829;56.976;21.958;2024-03-08T16:48:09;10.23;;;4.32;;
57385;SDS011;71829;56.976;21.958;2024-03-08T16:50:37;11.30;;;4.28;;
57385;SDS011;71829;56.976;21.958;2024-03-08T16:53:07;6.30;;;1.23;;
57385;SDS011;71829;56.976;21.958;2024-03-08T16:55:38;11.90;;;3.60;;
57385;SDS011;71829;56.976;21.958;2024-03-08T16:58:07;9.32;;;1.40;;
57385;SDS011;71829;56.976;21.958;2024-03-08T17:00:41;7.97;;;1.40;;
57385;SDS011;71829;56.976;21.958;2024-03-08T17:03:09;10.15;;;1.63;;
57385;SDS011;71829;56.976;21.958;2024-03-08T17:05:39;14.93;;;3.10;;
57385;SDS011;71829;56.976;21.958;2024-03-08T17:08:21;7.30;;;1.65;;
57385;SDS011;71829;56.976;21.958;2024-03-08T17:10:49;23.20;;;5.40;;
57385;SDS011;71829;56.976;21.958;2024-03-08T17:13:17;58.30;;;11.68;;
57385;SDS011;71829;56.976;21.958;2024-03-08T17:15:45;43.00;;;9.40;;
57385;SDS011;71829;56.976;21.958;2024-03-08T17:18:15;26.92;;;6.30;;
57385;SDS011;71829;56.976;21.958;2024-03-08T17:20:43;27.35;;;5.40;;
57385;SDS011;71829;56.976;21.958;2024-03-08T17:23:11;51.50;;;9.55;;
57385;SDS011;71829;56.976;21.958;2024-03-08T17:25:43;63.88;;;13.30;;
57385;SDS011;71829;56.976;21.958;2024-03-08T17:28:13;135.20;;;22.40;;
57385;SDS011;71829;56.976;21.958;2024-03-08T17:30:42;102.13;;;19.58;;
57385;SDS011;71829;56.976;21.958;2024-03-08T17:33:12;50.72;;;11.00;;
57385;SDS011;71829;56.976;21.958;2024-03-08T17:35:48;107.85;;;18.67;;
57385;SDS011;71829;56.976;21.958;2024-03-08T17:38:19;34.55;;;8.57;;
57385;SDS011;71829;56.976;21.958;2024-03-08T17:40:48;22.55;;;4.25;;
57385;SDS011;71829;56.976;21.958;2024-03-08T17:43:15;19.25;;;4.03;;
57385;SDS011;71829;56.976;21.958;2024-03-08T17:45:49;17.73;;;3.58;;
57385;SDS011;71829;56.976;21.958;2024-03-08T17:48:19;7.80;;;1.38;;
57385;SDS011;71829;56.976;21.958;2024-03-08T17:50:48;9.95;;;1.42;;
57385;SDS011;71829;56.976;21.958;2024-03-08T17:53:16;8.30;;;1.42;;
57385;SDS011;71829;56.976;21.958;2024-03-08T17:55:45;8.82;;;1.42;;
57385;SDS011;71829;56.976;21.958;2024-03-08T18:58:26;31.65;;;9.10;;
57385;SDS011;71829;56.976;21.958;2024-03-08T19:01:10;24.52;;;8.40;;
57385;SDS011;71829;56.976;21.958;2024-03-08T19:03:38;31.95;;;8.80;;
57385;SDS011;71829;56.976;21.958;2024-03-08T19:06:08;21.88;;;6.10;;
57385;SDS011;71829;56.976;21.958;2024-03-08T19:08:35;22.92;;;7.95;;
57385;SDS011;71829;56.976;21.958;2024-03-08T19:11:03;33.60;;;8.95;;
57385;SDS011;71829;56.976;21.958;2024-03-08T19:13:31;22.05;;;6.72;;
57385;SDS011;71829;56.976;21.958;2024-03-08T19:15:59;19.60;;;4.72;;
57385;SDS011;71829;56.976;21.958;2024-03-08T19:18:27;23.70;;;6.32;;
57385;SDS011;71829;56.976;21.958;2024-03-08T19:20:56;17.08;;;3.15;;
57385;SDS011;71829;56.976;21.958;2024-03-08T19:23:24;21.33;;;4.07;;
57385;SDS011;71829;56.976;21.958;2024-03-08T19:25:53;16.92;;;4.28;;
57385;SDS011;71829;56.976;21.958;2024-03-08T19:28:21;14.45;;;4.65;;
57385;SDS011;71829;56.976;21.958;2024-03-08T19:30:48;7.00;;;2.03;;
57385;SDS011;71829;56.976;21.958;2024-03-08T19:33:18;7.13;;;2.03;;
57385;SDS011;71829;56.976;21.958;2024-03-08T19:35:47;3.67;;;0.60;;
57385;SDS011;71829;56.976;21.958;2024-03-08T19:38:15;3.20;;;0.70;;
57385;SDS011;71829;56.976;21.958;2024-03-08T19:40:43;2.42;;;0.40;;
57385;SDS011;71829;56.976;21.958;2024-03-08T19:43:12;2.92;;;0.30;;
57385;SDS011;71829;56.976;21.958;2024-03-08T19:45:42;2.30;;;0.70;;
57385;SDS011;71829;56.976;21.958;2024-03-08T19:48:10;3.40;;;0.50;;
57385;SDS011;71829;56.976;21.958;2024-03-08T19:50:47;3.97;;;0.60;;
57385;SDS011;71829;56.976;21.958;2024-03-08T19:53:16;2.40;;;0.40;;
57385;SDS011;71829;56.976;21.958;2024-03-08T19:55:44;3.92;;;0.90;;
57385;SDS011;71829;56.976;21.958;2024-03-08T19:58:18;3.70;;;0.82;;
57385;SDS011;71829;56.976;21.958;2024-03-08T20:00:47;4.25;;;0.50;;
57385;SDS011;71829;56.976;21.958;2024-03-08T20:03:16;4.47;;;1.08;;
57385;SDS011;71829;56.976;21.958;2024-03-08T20:05:49;29.20;;;10.18;;
57385;SDS011;71829;56.976;21.958;2024-03-08T20:08:21;6.90;;;4.03;;
57385;SDS011;71829;56.976;21.958;2024-03-08T20:10:50;2.75;;;0.40;;
57385;SDS011;71829;56.976;21.958;2024-03-08T20:13:19;3.25;;;0.63;;
57385;SDS011;71829;56.976;21.958;2024-03-08T20:15:46;2.40;;;0.30;;
57385;SDS011;71829;56.976;21.958;2024-03-08T20:18:20;2.95;;;0.60;;